createdAt,value
2023-02-24T00:00:35.438Z,1.42
2023-02-24T00:03:12.978Z,1.20
2023-02-24T00:05:51.709Z,1.33
2023-02-24T00:08:26.321Z,1.60
2023-02-24T00:11:01.913Z,1.50
2023-02-24T00:13:37.237Z,1.50
2023-02-24T00:16:13.597Z,1.27
2023-02-24T00:18:51.204Z,1.60
2023-02-24T00:21:26.538Z,1.10
2023-02-24T00:24:03.195Z,1.40
2023-02-24T00:26:37.955Z,1.20
2023-02-24T00:29:14.287Z,1.20
2023-02-24T00:31:49.956Z,1.20
2023-02-24T00:34:27.720Z,1.30
2023-02-24T00:37:09.685Z,1.40
2023-02-24T00:39:46.016Z,1.17
2023-02-24T00:42:21.583Z,1.27
2023-02-24T00:44:57.831Z,1.02
2023-02-24T00:47:34.115Z,1.00
2023-02-24T00:50:12.120Z,1.00
2023-02-24T00:52:49.193Z,1.15
2023-02-24T00:55:24.968Z,1.30
2023-02-24T00:57:59.981Z,1.10
2023-02-24T01:00:38.506Z,1.17
2023-02-24T01:03:13.775Z,1.20
2023-02-24T01:05:49.918Z,1.10
2023-02-24T01:08:24.841Z,1.00
2023-02-24T01:11:19.040Z,1.23
2023-02-24T01:13:54.691Z,1.05
2023-02-24T01:16:30.789Z,0.90
2023-02-24T01:19:05.185Z,1.10
2023-02-24T01:21:42.626Z,0.80
2023-02-24T01:24:18.925Z,1.33
2023-02-24T01:26:53.694Z,1.33
2023-02-24T01:29:29.199Z,1.55
2023-02-24T01:32:04.822Z,1.45
2023-02-24T01:34:40.629Z,1.27
2023-02-24T01:37:20.948Z,1.52
2023-02-24T01:39:56.217Z,1.48
2023-02-24T01:42:34.439Z,1.50
2023-02-24T01:45:14.402Z,1.27
2023-02-24T01:47:51.970Z,1.30
2023-02-24T01:50:28.585Z,1.30
2023-02-24T01:53:07.822Z,1.40
2023-02-24T01:55:48.685Z,1.67
2023-02-24T01:58:26.319Z,1.52
2023-02-24T02:01:02.054Z,1.25
2023-02-24T02:03:38.964Z,1.50
2023-02-24T02:06:14.784Z,1.30
2023-02-24T02:08:51.458Z,1.33
2023-02-24T02:11:25.834Z,1.10
2023-02-24T02:14:00.338Z,1.30
2023-02-24T02:16:46.630Z,1.00
2023-02-24T02:19:33.367Z,0.98
2023-02-24T02:22:11.194Z,0.85
2023-02-24T02:24:50.816Z,0.88
2023-02-24T02:27:50.440Z,1.08
2023-02-24T02:30:45.520Z,1.00
2023-02-24T02:33:40.143Z,0.98
2023-02-24T02:36:23.654Z,0.77
2023-02-24T02:38:59.892Z,1.15
2023-02-24T02:41:37.021Z,1.05
2023-02-24T02:44:13.821Z,1.05
2023-02-24T02:46:51.175Z,1.00
2023-02-24T02:49:27.307Z,1.38
2023-02-24T02:52:09.035Z,1.17
2023-02-24T02:54:51.211Z,1.23
2023-02-24T02:57:28.259Z,2.00
2023-02-24T03:00:04.706Z,1.48
2023-02-24T03:02:43.041Z,1.25
2023-02-24T03:05:22.035Z,1.00
2023-02-24T03:08:18.315Z,1.17
2023-02-24T03:11:12.468Z,1.00
2023-02-24T03:13:51.223Z,0.93
2023-02-24T03:16:28.177Z,0.80
2023-02-24T03:19:05.448Z,1.00
2023-02-24T03:21:42.139Z,0.75
2023-02-24T03:24:17.208Z,1.00
2023-02-24T03:26:58.130Z,1.00
2023-02-24T03:29:35.317Z,0.90
2023-02-24T03:32:11.667Z,1.20
2023-02-24T03:34:50.633Z,1.20
2023-02-24T03:37:28.569Z,1.45
2023-02-24T03:40:13.777Z,1.10
2023-02-24T03:42:56.118Z,1.00
2023-02-24T03:45:30.778Z,1.45
2023-02-24T03:48:06.026Z,1.30
2023-02-24T03:50:42.304Z,1.50
2023-02-24T03:53:45.470Z,1.10
2023-02-24T03:56:27.087Z,1.33
2023-02-24T03:59:10.830Z,1.00
2023-02-24T04:01:50.387Z,1.00
2023-02-24T04:04:31.018Z,1.00
2023-02-24T04:07:18.106Z,1.00
2023-02-24T04:09:55.503Z,0.90
2023-02-24T04:12:33.249Z,0.75
2023-02-24T04:15:16.448Z,1.10
2023-02-24T04:17:53.743Z,1.02
2023-02-24T04:20:34.609Z,0.77
2023-02-24T04:23:13.241Z,0.85
2023-02-24T04:25:49.105Z,1.00
2023-02-24T04:28:25.090Z,1.42
2023-02-24T04:31:07.475Z,1.10
2023-02-24T04:33:43.659Z,1.00
2023-02-24T04:36:18.214Z,0.95
2023-02-24T04:38:54.055Z,0.98
2023-02-24T04:41:28.502Z,1.02
2023-02-24T04:44:03.947Z,0.82
2023-02-24T04:46:40.138Z,1.00
2023-02-24T04:49:14.777Z,1.10
2023-02-24T04:51:49.616Z,1.23
2023-02-24T04:54:26.145Z,0.90
2023-02-24T04:57:01.085Z,0.98
2023-02-24T04:59:35.343Z,0.90
2023-02-24T05:02:11.960Z,0.93
2023-02-24T05:04:46.955Z,1.02
2023-02-24T05:07:23.332Z,0.90
2023-02-24T05:10:16.979Z,0.80
2023-02-24T05:12:52.294Z,1.00
2023-02-24T05:15:32.685Z,0.90
2023-02-24T05:18:10.776Z,0.90
2023-02-24T05:21:04.131Z,0.82
2023-02-24T05:23:40.849Z,0.75
2023-02-24T05:26:18.025Z,1.00
2023-02-24T05:28:53.871Z,0.80
2023-02-24T05:31:30.136Z,0.70
2023-02-24T05:34:07.914Z,1.00
2023-02-24T05:36:43.902Z,0.82
2023-02-24T05:43:17.153Z,1.00
2023-02-24T05:45:51.746Z,0.75
2023-02-24T05:48:26.535Z,0.85
2023-02-24T05:51:04.848Z,0.70
2023-02-24T05:53:42.996Z,0.90
2023-02-24T05:56:20.759Z,0.73
2023-02-24T05:59:03.449Z,0.68
2023-02-24T06:01:39.198Z,0.80
2023-02-24T06:04:22.549Z,0.80
2023-02-24T06:06:59.865Z,1.17
2023-02-24T06:09:35.730Z,0.90
2023-02-24T06:12:10.944Z,0.80
2023-02-24T06:14:46.673Z,0.73
2023-02-24T06:17:21.901Z,0.77
2023-02-24T06:19:56.980Z,0.70
2023-02-24T06:22:35.108Z,0.85
2023-02-24T06:25:13.047Z,0.80
2023-02-24T06:27:47.468Z,0.70
2023-02-24T06:30:22.049Z,1.10
2023-02-24T06:32:56.254Z,0.80
2023-02-24T06:35:31.173Z,1.00
2023-02-24T06:38:08.275Z,0.70
2023-02-24T06:40:44.317Z,0.82
2023-02-24T06:43:19.161Z,0.80
2023-02-24T06:45:54.040Z,0.73
2023-02-24T06:48:29.645Z,0.93
2023-02-24T06:51:05.200Z,1.00
2023-02-24T06:53:44.843Z,0.90
2023-02-24T06:56:21.564Z,1.00
2023-02-24T06:58:57.007Z,1.00
2023-02-24T07:01:32.705Z,0.80
2023-02-24T07:04:19.285Z,0.85
2023-02-24T07:06:57.351Z,0.80
2023-02-24T07:09:34.694Z,0.80
2023-02-24T07:12:09.923Z,0.80
2023-02-24T07:14:44.437Z,0.70
2023-02-24T07:17:20.661Z,0.82
2023-02-24T07:19:58.929Z,0.85
2023-02-24T07:22:33.464Z,0.70
2023-02-24T07:25:10.271Z,0.93
2023-02-24T07:27:52.221Z,0.73
2023-02-24T07:30:27.829Z,1.00
2023-02-24T07:33:02.570Z,1.13
2023-02-24T07:35:37.300Z,0.90
2023-02-24T07:38:12.172Z,0.80
2023-02-24T07:40:49.782Z,1.00
2023-02-24T07:43:24.593Z,0.95
2023-02-24T07:45:59.786Z,0.90
2023-02-24T07:48:34.360Z,0.80
2023-02-24T07:51:12.433Z,0.95
2023-02-24T07:53:47.286Z,0.93
2023-02-24T07:56:28.502Z,1.00
2023-02-24T07:59:04.129Z,0.93
2023-02-24T08:01:40.600Z,0.82
2023-02-24T08:04:17.640Z,0.77
2023-02-24T08:06:57.390Z,0.80
2023-02-24T08:10:11.632Z,0.68
2023-02-24T08:12:49.232Z,0.60
2023-02-24T08:15:26.339Z,0.90
2023-02-24T08:18:03.322Z,0.88
2023-02-24T08:20:54.418Z,0.85
2023-02-24T08:23:29.463Z,0.70
2023-02-24T08:26:04.123Z,1.15
2023-02-24T08:28:41.035Z,0.98
2023-02-24T08:31:15.936Z,0.70
2023-02-24T08:33:50.593Z,0.82
2023-02-24T08:36:27.715Z,0.70
2023-02-24T08:39:01.815Z,1.10
2023-02-24T08:41:52.818Z,1.00
2023-02-24T08:44:30.846Z,0.90
2023-02-24T08:47:09.173Z,0.85
2023-02-24T08:49:44.720Z,0.88
2023-02-24T08:52:22.080Z,0.90
2023-02-24T08:55:00.810Z,0.93
2023-02-24T08:57:37.625Z,1.08
2023-02-24T09:00:29.734Z,1.00
2023-02-24T09:03:09.955Z,1.00
2023-02-24T09:05:45.006Z,0.95
2023-02-24T09:08:25.757Z,0.90
2023-02-24T09:11:01.016Z,1.02
2023-02-24T09:13:36.713Z,1.30
2023-02-24T09:16:18.105Z,1.10
2023-02-24T09:19:12.939Z,0.85
2023-02-24T09:22:16.580Z,1.00
2023-02-24T09:25:15.828Z,1.10
2023-02-24T09:27:53.912Z,0.98
2023-02-24T09:30:39.623Z,1.00
2023-02-24T09:33:22.597Z,0.80
2023-02-24T09:36:11.421Z,0.75
2023-02-24T09:39:08.559Z,0.90
2023-02-24T09:42:02.189Z,1.10
2023-02-24T09:44:38.690Z,1.00
2023-02-24T09:47:21.749Z,0.80
2023-02-24T09:50:00.778Z,0.90
2023-02-24T09:52:44.732Z,0.85
2023-02-24T09:55:28.870Z,0.80
2023-02-24T09:58:26.935Z,1.00
2023-02-24T10:01:22.742Z,0.90
2023-02-24T10:04:18.693Z,1.00
2023-02-24T10:07:01.088Z,1.00
2023-02-24T10:09:38.396Z,0.80
2023-02-24T10:12:15.239Z,0.90
2023-02-24T10:15:00.403Z,0.80
2023-02-24T10:17:41.746Z,0.70
2023-02-24T10:20:32.573Z,0.82
2023-02-24T10:23:11.452Z,0.80
2023-02-24T10:25:55.567Z,1.20
2023-02-24T10:28:37.599Z,1.00
2023-02-24T10:31:26.755Z,0.90
2023-02-24T10:34:02.382Z,1.00
2023-02-24T10:36:39.702Z,1.05
2023-02-24T10:39:22.069Z,0.90
2023-02-24T10:41:59.270Z,1.00
2023-02-24T10:44:37.695Z,0.90
2023-02-24T10:47:16.091Z,0.80
2023-02-24T10:50:00.502Z,0.95
2023-02-24T10:52:55.447Z,0.88
2023-02-24T10:55:55.068Z,0.80
2023-02-24T10:58:39.772Z,0.80
2023-02-24T11:01:20.577Z,0.95
2023-02-24T11:04:24.239Z,0.90
2023-02-24T11:07:12.024Z,1.00
2023-02-24T11:09:54.060Z,0.90
2023-02-24T11:12:46.884Z,0.70
2023-02-24T11:15:39.938Z,0.70
2023-02-24T11:18:21.564Z,0.90
2023-02-24T11:20:58.074Z,1.10
2023-02-24T11:23:34.033Z,0.98
2023-02-24T11:26:13.138Z,1.05
2023-02-24T11:28:57.874Z,0.88
2023-02-24T11:31:42.193Z,0.98
2023-02-24T11:34:20.817Z,1.00
2023-02-24T11:36:59.403Z,0.90
2023-02-24T11:39:42.038Z,1.00
2023-02-24T11:42:18.421Z,0.90
2023-02-24T11:44:57.082Z,1.00
2023-02-24T11:47:35.390Z,0.90
2023-02-24T11:50:21.347Z,1.45
2023-02-24T11:52:56.570Z,0.90
2023-02-24T11:55:36.631Z,1.00
2023-02-24T11:58:17.824Z,0.95
2023-02-24T12:00:57.481Z,0.90
2023-02-24T12:03:38.013Z,0.73
2023-02-24T12:06:19.020Z,0.77
2023-02-24T12:08:56.616Z,0.88
2023-02-24T12:11:40.347Z,0.80
2023-02-24T12:14:30.962Z,0.80
2023-02-24T12:17:12.173Z,0.77
2023-02-24T12:19:54.255Z,1.00
2023-02-24T12:22:29.356Z,0.93
2023-02-24T12:25:03.749Z,0.73
2023-02-24T12:27:46.089Z,1.00
2023-02-24T12:30:39.146Z,1.10
2023-02-24T12:33:22.102Z,1.08
2023-02-24T12:36:01.952Z,1.08
2023-02-24T12:38:42.835Z,1.00
2023-02-24T12:41:28.565Z,0.88
2023-02-24T12:44:08.220Z,1.10
2023-02-24T12:46:43.872Z,0.98
2023-02-24T12:49:30.577Z,0.82
2023-02-24T12:52:12.678Z,1.23
2023-02-24T12:54:50.998Z,0.70
2023-02-24T12:57:28.832Z,1.20
2023-02-24T13:00:07.172Z,0.80
2023-02-24T13:02:50.027Z,0.80
2023-02-24T13:05:30.249Z,0.80
2023-02-24T13:08:22.005Z,0.80
2023-02-24T13:11:00.193Z,0.80
2023-02-24T13:13:38.016Z,0.75
2023-02-24T13:16:16.724Z,1.00
2023-02-24T13:18:51.193Z,0.80
2023-02-24T13:21:27.926Z,0.80
2023-02-24T13:24:04.471Z,1.00
2023-02-24T13:26:39.464Z,1.08
2023-02-24T13:29:15.588Z,0.80
2023-02-24T13:31:51.874Z,0.95
2023-02-24T13:34:37.018Z,0.90
2023-02-24T13:37:14.375Z,1.00
2023-02-24T13:39:48.902Z,1.00
2023-02-24T13:42:27.348Z,1.05
2023-02-24T13:45:08.396Z,0.90
2023-02-24T13:47:57.404Z,1.00
2023-02-24T13:50:37.956Z,1.17
2023-02-24T13:53:18.800Z,0.95
2023-02-24T13:55:56.167Z,1.20
2023-02-24T13:58:51.910Z,0.82
2023-02-24T14:01:26.824Z,0.85
2023-02-24T14:04:09.169Z,0.85
2023-02-24T14:06:44.275Z,1.10
2023-02-24T14:09:24.360Z,0.77
2023-02-24T14:12:02.931Z,1.13
2023-02-24T14:14:37.406Z,1.02
2023-02-24T14:17:26.120Z,1.00
2023-02-24T14:20:01.731Z,0.90
2023-02-24T14:22:36.455Z,0.88
2023-02-24T14:25:13.268Z,0.80
2023-02-24T14:27:49.033Z,0.90
2023-02-24T14:30:34.680Z,0.98
2023-02-24T14:33:10.772Z,1.00
2023-02-24T14:35:51.386Z,0.88
2023-02-24T14:38:36.305Z,0.82
2023-02-24T14:41:21.094Z,0.77
2023-02-24T14:43:56.898Z,0.90
2023-02-24T14:46:31.298Z,1.00
2023-02-24T14:49:06.831Z,0.75
2023-02-24T14:51:42.107Z,0.80
2023-02-24T14:54:19.115Z,0.88
2023-02-24T14:56:55.689Z,1.02
2023-02-24T14:59:33.843Z,0.90
2023-02-24T15:02:10.081Z,0.90
2023-02-24T15:04:46.322Z,1.10
2023-02-24T15:07:22.501Z,1.00
2023-02-24T15:09:57.501Z,1.00
2023-02-24T15:12:36.026Z,1.00
2023-02-24T15:15:12.098Z,0.95
2023-02-24T15:17:46.698Z,1.00
2023-02-24T15:20:32.767Z,0.90
2023-02-24T15:23:08.098Z,1.05
2023-02-24T15:25:47.445Z,0.98
2023-02-24T15:28:32.527Z,1.02
2023-02-24T15:31:11.230Z,1.05
2023-02-24T15:33:47.331Z,0.80
2023-02-24T15:36:24.107Z,1.13
2023-02-24T15:39:00.419Z,1.20
2023-02-24T15:41:44.751Z,1.08
2023-02-24T15:44:35.640Z,1.15
2023-02-24T15:47:25.528Z,0.82
2023-02-24T15:49:59.856Z,0.90
2023-02-24T15:52:35.237Z,0.80
2023-02-24T15:55:10.366Z,0.90
2023-02-24T15:57:44.695Z,1.00
2023-02-24T16:00:22.640Z,1.10
2023-02-24T16:02:57.309Z,0.98
2023-02-24T16:05:32.454Z,0.98
2023-02-24T16:08:07.444Z,0.82
2023-02-24T16:10:41.846Z,0.90
2023-02-24T16:13:20.932Z,0.80
2023-02-24T16:15:57.998Z,0.85
2023-02-24T16:18:32.173Z,0.80
2023-02-24T16:21:06.518Z,1.00
2023-02-24T16:23:42.436Z,0.80
2023-02-24T16:26:22.431Z,0.95
2023-02-24T16:28:58.617Z,1.05
2023-02-24T16:31:35.032Z,0.90
2023-02-24T16:34:10.410Z,0.80
2023-02-24T16:36:45.521Z,0.93
2023-02-24T16:39:20.547Z,0.80
2023-02-24T16:41:57.810Z,0.95
2023-02-24T16:44:32.803Z,1.10
2023-02-24T16:47:09.700Z,1.23
2023-02-24T16:49:44.922Z,1.27
2023-02-24T16:52:24.635Z,1.33
2023-02-24T16:55:00.358Z,1.15
2023-02-24T16:57:35.283Z,0.90
2023-02-24T17:00:09.876Z,1.40
2023-02-24T17:02:50.706Z,1.40
2023-02-24T17:05:27.360Z,1.35
2023-02-24T17:08:02.604Z,1.50
2023-02-24T17:10:41.012Z,1.20
2023-02-24T17:13:16.508Z,1.30
2023-02-24T17:15:56.777Z,1.45
2023-02-24T17:18:40.186Z,1.60
2023-02-24T17:21:21.178Z,1.27
2023-02-24T17:23:55.736Z,1.30
2023-02-24T17:26:31.191Z,1.13
2023-02-24T17:29:06.147Z,1.23
2023-02-24T17:31:40.783Z,1.20
2023-02-24T17:34:18.378Z,1.30
2023-02-24T17:36:53.072Z,1.13
2023-02-24T17:39:28.216Z,1.30
2023-02-24T17:42:04.169Z,1.40
2023-02-24T17:44:41.649Z,1.55
2023-02-24T17:47:16.459Z,1.50
2023-02-24T17:49:53.048Z,1.60
2023-02-24T17:52:27.697Z,1.60
2023-02-24T17:55:02.140Z,1.70
2023-02-24T17:57:38.855Z,1.45
2023-02-24T18:00:14.197Z,1.80
2023-02-24T18:02:48.755Z,1.30
2023-02-24T18:05:25.196Z,1.40
2023-02-24T18:08:02.251Z,1.45
2023-02-24T18:10:37.106Z,1.50
2023-02-24T18:13:12.499Z,1.30
2023-02-24T18:15:46.693Z,1.30
2023-02-24T18:18:21.327Z,1.50
2023-02-24T18:21:00.296Z,1.50
2023-02-24T18:23:34.450Z,1.67
2023-02-24T18:26:09.045Z,1.23
2023-02-24T18:28:44.609Z,1.75
2023-02-24T18:31:20.473Z,1.50
2023-02-24T18:33:55.171Z,1.48
2023-02-24T18:36:31.754Z,1.27
2023-02-24T18:39:06.576Z,1.58
2023-02-24T18:41:41.459Z,1.42
2023-02-24T18:44:16.711Z,1.13
2023-02-24T18:46:51.404Z,1.55
2023-02-24T18:49:26.039Z,1.38
2023-02-24T18:52:03.043Z,1.60
2023-02-24T18:54:38.004Z,1.50
2023-02-24T18:57:12.366Z,1.75
2023-02-24T18:59:47.845Z,1.50
2023-02-24T19:02:23.253Z,1.60
2023-02-24T19:04:57.661Z,1.50
2023-02-24T19:07:33.925Z,1.58
2023-02-24T19:10:08.762Z,1.45
2023-02-24T19:12:43.829Z,1.33
2023-02-24T19:15:19.444Z,1.63
2023-02-24T19:17:53.696Z,1.67
2023-02-24T19:20:28.308Z,1.50
2023-02-24T19:23:05.148Z,1.90
2023-02-24T19:25:39.437Z,1.50
2023-02-24T19:28:13.588Z,1.60
2023-02-24T19:30:48.783Z,1.40
2023-02-24T19:33:23.652Z,1.70
2023-02-24T19:36:03.385Z,1.70
2023-02-24T19:38:39.527Z,1.88
2023-02-24T19:41:14.289Z,1.73
2023-02-24T19:43:49.046Z,2.10
2023-02-24T19:46:24.716Z,1.65
2023-02-24T19:49:01.670Z,1.70
2023-02-24T19:51:36.541Z,1.73
2023-02-24T19:54:13.353Z,1.75
2023-02-24T19:56:47.860Z,1.65
2023-02-24T19:59:22.207Z,1.70
2023-02-24T20:01:58.138Z,1.70
2023-02-24T20:04:32.932Z,1.95
2023-02-24T20:07:07.300Z,1.77
2023-02-24T20:09:46.314Z,1.95
2023-02-24T20:12:20.764Z,2.22
2023-02-24T20:14:55.710Z,1.90
2023-02-24T20:17:30.729Z,1.60
2023-02-24T20:20:05.222Z,1.70
2023-02-24T20:22:39.660Z,1.85
2023-02-24T20:25:17.074Z,1.80
2023-02-24T20:27:51.403Z,1.90
2023-02-24T20:30:25.860Z,2.00
2023-02-24T20:33:01.305Z,1.60
2023-02-24T20:35:37.970Z,2.03
2023-02-24T20:38:12.339Z,2.00
2023-02-24T20:40:48.613Z,1.80
2023-02-24T20:43:23.351Z,1.60
2023-02-24T20:46:01.745Z,1.95
2023-02-24T20:48:36.797Z,1.88
2023-02-24T20:51:11.763Z,2.10
2023-02-24T20:53:56.685Z,2.25
2023-02-24T20:56:38.035Z,1.95
2023-02-24T20:59:16.770Z,1.85
2023-02-24T21:01:53.011Z,1.60
2023-02-24T21:04:29.202Z,1.92
2023-02-24T21:07:04.755Z,1.95
2023-02-24T21:09:40.025Z,2.15
2023-02-24T21:12:19.539Z,1.80
2023-02-24T21:14:55.352Z,2.08
2023-02-24T21:17:31.480Z,1.83
2023-02-24T21:20:07.672Z,1.90
2023-02-24T21:22:43.173Z,2.25
2023-02-24T21:25:18.868Z,2.13
2023-02-24T21:27:59.897Z,1.77
2023-02-24T21:30:35.440Z,1.70
2023-02-24T21:33:10.983Z,1.85
2023-02-24T21:35:47.706Z,1.88
2023-02-24T21:38:23.538Z,2.33
2023-02-24T21:40:58.868Z,1.90
2023-02-24T21:43:36.136Z,2.20
2023-02-24T21:46:12.981Z,1.90
2023-02-24T21:48:48.744Z,2.30
2023-02-24T21:51:26.597Z,2.00
2023-02-24T21:54:02.485Z,2.08
2023-02-24T21:56:38.157Z,2.22
2023-02-24T21:59:16.320Z,2.00
2023-02-24T22:01:51.963Z,1.90
2023-02-24T22:04:27.271Z,1.60
2023-02-24T22:07:02.916Z,1.65
2023-02-24T22:09:38.609Z,1.45
2023-02-24T22:12:13.637Z,1.50
2023-02-24T22:14:50.462Z,1.50
2023-02-24T22:17:25.901Z,1.30
2023-02-24T22:20:01.752Z,1.70
2023-02-24T22:22:40.344Z,1.60
2023-02-24T22:25:15.581Z,1.40
2023-02-24T22:27:50.825Z,1.45
2023-02-24T22:30:28.760Z,1.40
2023-02-24T22:33:04.100Z,1.45
2023-02-24T22:35:40.018Z,1.70
2023-02-24T22:38:16.086Z,1.45
2023-02-24T22:41:02.217Z,1.52
2023-02-24T22:43:37.376Z,1.48
2023-02-24T22:46:16.467Z,1.60
2023-02-24T22:48:52.093Z,1.50
2023-02-24T22:51:29.552Z,1.33
2023-02-24T22:54:05.394Z,1.50
2023-02-24T22:56:40.479Z,1.40
2023-02-24T22:59:16.290Z,1.30
2023-02-24T23:01:53.842Z,1.50
2023-02-24T23:04:30.888Z,1.45
2023-02-24T23:07:06.033Z,1.30
2023-02-24T23:09:42.225Z,1.20
2023-02-24T23:12:19.307Z,0.90
2023-02-24T23:14:57.648Z,1.30
2023-02-24T23:17:34.950Z,1.40
2023-02-24T23:20:14.653Z,1.40
2023-02-24T23:22:53.551Z,1.00
2023-02-24T23:25:29.822Z,1.40
2023-02-24T23:28:05.446Z,1.10
2023-02-24T23:30:44.804Z,1.27
2023-02-24T23:33:22.717Z,1.23
2023-02-24T23:35:58.188Z,1.42
2023-02-24T23:38:34.547Z,1.17
2023-02-24T23:41:14.257Z,0.80
2023-02-24T23:43:50.219Z,0.70
2023-02-24T23:46:27.296Z,0.90
2023-02-24T23:49:04.771Z,0.70
2023-02-24T23:51:48.444Z,0.70
2023-02-24T23:54:24.975Z,0.73
2023-02-24T23:57:00.732Z,0.77
2023-02-24T23:59:35.675Z,0.80
